sensor_id;sensor_type;location;lat;lon;timestamp;P1;durP1;ratioP1;P2;durP2;ratioP2
32196;SDS011;18697;42.770;23.400;2023-07-13T00:01:28;6.85;;;5.50;;
32196;SDS011;18697;42.770;23.400;2023-07-13T00:03:54;8.02;;;5.10;;
32196;SDS011;18697;42.770;23.400;2023-07-13T00:06:21;6.35;;;5.22;;
32196;SDS011;18697;42.770;23.400;2023-07-13T00:08:47;5.13;;;4.68;;
32196;SDS011;18697;42.770;23.400;2023-07-13T00:11:14;5.25;;;4.75;;
32196;SDS011;18697;42.770;23.400;2023-07-13T00:13:40;5.70;;;5.13;;
32196;SDS011;18697;42.770;23.400;2023-07-13T00:16:06;10.07;;;5.07;;
32196;SDS011;18697;42.770;23.400;2023-07-13T00:18:32;7.95;;;6.15;;
32196;SDS011;18697;42.770;23.400;2023-07-13T00:20:58;7.45;;;5.70;;
32196;SDS011;18697;42.770;23.400;2023-07-13T00:23:30;8.38;;;5.38;;
32196;SDS011;18697;42.770;23.400;2023-07-13T00:26:06;5.55;;;4.78;;
32196;SDS011;18697;42.770;23.400;2023-07-13T00:28:32;7.35;;;5.35;;
32196;SDS011;18697;42.770;23.400;2023-07-13T00:30:58;6.03;;;5.43;;
32196;SDS011;18697;42.770;23.400;2023-07-13T00:33:24;6.20;;;5.00;;
32196;SDS011;18697;42.770;23.400;2023-07-13T00:35:50;5.57;;;5.07;;
32196;SDS011;18697;42.770;23.400;2023-07-13T00:38:16;7.10;;;5.53;;
32196;SDS011;18697;42.770;23.400;2023-07-13T00:40:41;6.95;;;5.10;;
32196;SDS011;18697;42.770;23.400;2023-07-13T00:43:13;5.60;;;4.97;;
32196;SDS011;18697;42.770;23.400;2023-07-13T00:48:14;5.85;;;5.13;;
32196;SDS011;18697;42.770;23.400;2023-07-13T00:50:43;6.07;;;5.13;;
32196;SDS011;18697;42.770;23.400;2023-07-13T00:53:10;6.40;;;5.78;;
32196;SDS011;18697;42.770;23.400;2023-07-13T00:55:36;9.95;;;5.13;;
32196;SDS011;18697;42.770;23.400;2023-07-13T00:58:02;5.82;;;5.07;;
32196;SDS011;18697;42.770;23.400;2023-07-13T01:00:30;7.32;;;5.15;;
32196;SDS011;18697;42.770;23.400;2023-07-13T01:02:55;7.85;;;5.45;;
32196;SDS011;18697;42.770;23.400;2023-07-13T01:05:22;8.68;;;5.35;;
32196;SDS011;18697;42.770;23.400;2023-07-13T01:07:49;5.20;;;4.70;;
32196;SDS011;18697;42.770;23.400;2023-07-13T01:10:17;6.65;;;5.32;;
32196;SDS011;18697;42.770;23.400;2023-07-13T01:12:47;6.82;;;5.55;;
32196;SDS011;18697;42.770;23.400;2023-07-13T01:18:01;11.02;;;5.43;;
32196;SDS011;18697;42.770;23.400;2023-07-13T01:20:27;6.03;;;5.43;;
32196;SDS011;18697;42.770;23.400;2023-07-13T01:22:53;6.45;;;4.93;;
32196;SDS011;18697;42.770;23.400;2023-07-13T01:25:19;6.88;;;5.45;;
32196;SDS011;18697;42.770;23.400;2023-07-13T01:27:45;6.03;;;5.35;;
32196;SDS011;18697;42.770;23.400;2023-07-13T01:30:10;5.97;;;5.38;;
32196;SDS011;18697;42.770;23.400;2023-07-13T01:32:36;8.07;;;5.35;;
32196;SDS011;18697;42.770;23.400;2023-07-13T01:35:01;6.82;;;5.25;;
32196;SDS011;18697;42.770;23.400;2023-07-13T01:37:27;6.88;;;5.38;;
32196;SDS011;18697;42.770;23.400;2023-07-13T01:39:53;6.40;;;5.25;;
32196;SDS011;18697;42.770;23.400;2023-07-13T01:42:18;6.90;;;5.25;;
32196;SDS011;18697;42.770;23.400;2023-07-13T01:44:44;6.07;;;5.47;;
32196;SDS011;18697;42.770;23.400;2023-07-13T01:47:09;6.97;;;5.43;;
32196;SDS011;18697;42.770;23.400;2023-07-13T01:49:35;6.65;;;5.05;;
32196;SDS011;18697;42.770;23.400;2023-07-13T01:52:02;6.15;;;5.40;;
32196;SDS011;18697;42.770;23.400;2023-07-13T01:54:28;7.68;;;5.30;;
32196;SDS011;18697;42.770;23.400;2023-07-13T01:56:53;7.72;;;5.20;;
32196;SDS011;18697;42.770;23.400;2023-07-13T01:59:18;6.15;;;5.55;;
32196;SDS011;18697;42.770;23.400;2023-07-13T02:01:44;6.07;;;5.45;;
32196;SDS011;18697;42.770;23.400;2023-07-13T02:04:09;5.80;;;5.03;;
32196;SDS011;18697;42.770;23.400;2023-07-13T02:06:35;7.63;;;5.18;;
32196;SDS011;18697;42.770;23.400;2023-07-13T02:09:01;6.07;;;5.20;;
32196;SDS011;18697;42.770;23.400;2023-07-13T02:11:26;6.22;;;5.43;;
32196;SDS011;18697;42.770;23.400;2023-07-13T02:13:57;6.70;;;5.22;;
32196;SDS011;18697;42.770;23.400;2023-07-13T02:16:24;8.45;;;5.30;;
32196;SDS011;18697;42.770;23.400;2023-07-13T02:18:49;5.97;;;5.28;;
32196;SDS011;18697;42.770;23.400;2023-07-13T02:21:17;8.18;;;5.30;;
32196;SDS011;18697;42.770;23.400;2023-07-13T02:23:42;6.15;;;5.30;;
32196;SDS011;18697;42.770;23.400;2023-07-13T02:26:08;7.97;;;5.20;;
32196;SDS011;18697;42.770;23.400;2023-07-13T02:28:33;6.22;;;5.10;;
32196;SDS011;18697;42.770;23.400;2023-07-13T02:31:09;7.35;;;5.40;;
32196;SDS011;18697;42.770;23.400;2023-07-13T02:33:36;6.85;;;5.53;;
32196;SDS011;18697;42.770;23.400;2023-07-13T02:36:02;8.18;;;5.78;;
32196;SDS011;18697;42.770;23.400;2023-07-13T02:38:29;6.95;;;5.30;;
32196;SDS011;18697;42.770;23.400;2023-07-13T02:40:55;5.75;;;4.70;;
32196;SDS011;18697;42.770;23.400;2023-07-13T02:43:20;6.28;;;4.68;;
32196;SDS011;18697;42.770;23.400;2023-07-13T02:45:46;5.97;;;4.97;;
32196;SDS011;18697;42.770;23.400;2023-07-13T02:48:13;5.35;;;4.82;;
32196;SDS011;18697;42.770;23.400;2023-07-13T02:50:39;6.95;;;4.97;;
32196;SDS011;18697;42.770;23.400;2023-07-13T02:53:04;6.72;;;5.10;;
32196;SDS011;18697;42.770;23.400;2023-07-13T02:55:30;5.80;;;4.90;;
32196;SDS011;18697;42.770;23.400;2023-07-13T02:57:55;9.20;;;5.15;;
32196;SDS011;18697;42.770;23.400;2023-07-13T03:00:22;7.72;;;5.22;;
32196;SDS011;18697;42.770;23.400;2023-07-13T03:02:47;9.20;;;4.93;;
32196;SDS011;18697;42.770;23.400;2023-07-13T03:05:13;5.68;;;4.95;;
32196;SDS011;18697;42.770;23.400;2023-07-13T03:07:39;7.97;;;5.20;;
32196;SDS011;18697;42.770;23.400;2023-07-13T03:10:05;5.75;;;5.25;;
32196;SDS011;18697;42.770;23.400;2023-07-13T03:12:31;7.20;;;4.70;;
32196;SDS011;18697;42.770;23.400;2023-07-13T03:14:57;7.95;;;4.90;;
32196;SDS011;18697;42.770;23.400;2023-07-13T03:17:23;6.55;;;4.80;;
32196;SDS011;18697;42.770;23.400;2023-07-13T03:19:48;5.82;;;4.53;;
32196;SDS011;18697;42.770;23.400;2023-07-13T03:22:16;6.22;;;4.93;;
32196;SDS011;18697;42.770;23.400;2023-07-13T03:24:42;7.85;;;5.40;;
32196;SDS011;18697;42.770;23.400;2023-07-13T03:27:07;5.70;;;5.10;;
32196;SDS011;18697;42.770;23.400;2023-07-13T03:29:33;9.40;;;4.97;;
32196;SDS011;18697;42.770;23.400;2023-07-13T03:31:58;7.78;;;5.03;;
32196;SDS011;18697;42.770;23.400;2023-07-13T03:34:24;8.48;;;4.90;;
32196;SDS011;18697;42.770;23.400;2023-07-13T03:36:50;8.18;;;5.30;;
32196;SDS011;18697;42.770;23.400;2023-07-13T03:39:15;7.38;;;4.53;;
32196;SDS011;18697;42.770;23.400;2023-07-13T03:41:40;5.43;;;4.65;;
32196;SDS011;18697;42.770;23.400;2023-07-13T03:44:06;5.80;;;5.20;;
32196;SDS011;18697;42.770;23.400;2023-07-13T03:46:32;6.82;;;4.63;;
32196;SDS011;18697;42.770;23.400;2023-07-13T03:48:58;6.93;;;4.90;;
32196;SDS011;18697;42.770;23.400;2023-07-13T03:51:24;5.30;;;4.80;;
32196;SDS011;18697;42.770;23.400;2023-07-13T03:53:50;7.18;;;5.05;;
32196;SDS011;18697;42.770;23.400;2023-07-13T03:56:16;8.48;;;5.18;;
32196;SDS011;18697;42.770;23.400;2023-07-13T03:58:43;7.68;;;5.38;;
32196;SDS011;18697;42.770;23.400;2023-07-13T04:01:11;6.53;;;4.85;;
32196;SDS011;18697;42.770;23.400;2023-07-13T04:03:37;8.10;;;5.10;;
32196;SDS011;18697;42.770;23.400;2023-07-13T04:06:04;5.65;;;4.32;;
32196;SDS011;18697;42.770;23.400;2023-07-13T04:08:31;7.80;;;5.68;;
32196;SDS011;18697;42.770;23.400;2023-07-13T04:11:01;10.30;;;5.53;;
32196;SDS011;18697;42.770;23.400;2023-07-13T04:13:28;9.07;;;5.55;;
32196;SDS011;18697;42.770;23.400;2023-07-13T04:15:54;12.65;;;5.35;;
32196;SDS011;18697;42.770;23.400;2023-07-13T04:18:20;9.80;;;5.75;;
32196;SDS011;18697;42.770;23.400;2023-07-13T04:20:46;9.38;;;6.72;;
32196;SDS011;18697;42.770;23.400;2023-07-13T04:23:13;9.15;;;5.60;;
32196;SDS011;18697;42.770;23.400;2023-07-13T04:25:38;7.90;;;6.10;;
32196;SDS011;18697;42.770;23.400;2023-07-13T04:28:04;9.90;;;6.00;;
32196;SDS011;18697;42.770;23.400;2023-07-13T04:30:30;9.23;;;5.82;;
32196;SDS011;18697;42.770;23.400;2023-07-13T04:32:56;7.25;;;5.97;;
32196;SDS011;18697;42.770;23.400;2023-07-13T04:35:22;7.10;;;5.38;;
32196;SDS011;18697;42.770;23.400;2023-07-13T04:37:48;7.82;;;5.90;;
32196;SDS011;18697;42.770;23.400;2023-07-13T04:40:15;9.57;;;6.03;;
32196;SDS011;18697;42.770;23.400;2023-07-13T04:42:42;9.05;;;5.68;;
32196;SDS011;18697;42.770;23.400;2023-07-13T04:45:07;8.25;;;6.53;;
32196;SDS011;18697;42.770;23.400;2023-07-13T04:47:33;8.40;;;6.35;;
32196;SDS011;18697;42.770;23.400;2023-07-13T04:49:58;15.05;;;6.00;;
32196;SDS011;18697;42.770;23.400;2023-07-13T04:52:24;9.80;;;5.95;;
32196;SDS011;18697;42.770;23.400;2023-07-13T04:54:49;10.40;;;6.40;;
32196;SDS011;18697;42.770;23.400;2023-07-13T04:57:15;14.82;;;8.50;;
32196;SDS011;18697;42.770;23.400;2023-07-13T04:59:40;8.80;;;6.13;;
32196;SDS011;18697;42.770;23.400;2023-07-13T05:02:06;8.50;;;6.50;;
32196;SDS011;18697;42.770;23.400;2023-07-13T05:04:32;8.35;;;6.28;;
32196;SDS011;18697;42.770;23.400;2023-07-13T05:06:59;13.35;;;7.60;;
32196;SDS011;18697;42.770;23.400;2023-07-13T05:09:24;21.35;;;8.50;;
32196;SDS011;18697;42.770;23.400;2023-07-13T05:11:50;7.65;;;6.47;;
32196;SDS011;18697;42.770;23.400;2023-07-13T05:14:15;14.25;;;8.85;;
32196;SDS011;18697;42.770;23.400;2023-07-13T05:16:41;14.85;;;9.10;;
32196;SDS011;18697;42.770;23.400;2023-07-13T05:19:07;16.55;;;10.60;;
32196;SDS011;18697;42.770;23.400;2023-07-13T05:21:33;12.32;;;8.73;;
32196;SDS011;18697;42.770;23.400;2023-07-13T05:23:58;15.93;;;9.82;;
32196;SDS011;18697;42.770;23.400;2023-07-13T05:26:23;15.02;;;10.13;;
32196;SDS011;18697;42.770;23.400;2023-07-13T05:28:49;11.50;;;8.57;;
32196;SDS011;18697;42.770;23.400;2023-07-13T05:31:14;14.05;;;12.07;;
32196;SDS011;18697;42.770;23.400;2023-07-13T05:33:40;14.85;;;10.45;;
32196;SDS011;18697;42.770;23.400;2023-07-13T05:36:05;19.05;;;12.68;;
32196;SDS011;18697;42.770;23.400;2023-07-13T05:38:32;19.55;;;13.65;;
32196;SDS011;18697;42.770;23.400;2023-07-13T05:40:58;16.48;;;12.93;;
32196;SDS011;18697;42.770;23.400;2023-07-13T05:43:24;16.95;;;10.82;;
32196;SDS011;18697;42.770;23.400;2023-07-13T05:45:51;18.27;;;13.27;;
32196;SDS011;18697;42.770;23.400;2023-07-13T05:48:18;17.60;;;11.43;;
32196;SDS011;18697;42.770;23.400;2023-07-13T05:50:43;15.70;;;12.60;;
32196;SDS011;18697;42.770;23.400;2023-07-13T05:53:09;12.48;;;11.00;;
32196;SDS011;18697;42.770;23.400;2023-07-13T05:55:34;13.85;;;11.20;;
32196;SDS011;18697;42.770;23.400;2023-07-13T05:58:00;19.48;;;12.98;;
32196;SDS011;18697;42.770;23.400;2023-07-13T06:00:26;16.23;;;11.65;;
32196;SDS011;18697;42.770;23.400;2023-07-13T06:02:52;16.70;;;10.40;;
32196;SDS011;18697;42.770;23.400;2023-07-13T06:05:17;18.58;;;10.57;;
32196;SDS011;18697;42.770;23.400;2023-07-13T06:07:43;15.57;;;9.20;;
32196;SDS011;18697;42.770;23.400;2023-07-13T06:10:08;12.73;;;9.23;;
32196;SDS011;18697;42.770;23.400;2023-07-13T06:12:34;15.18;;;9.05;;
32196;SDS011;18697;42.770;23.400;2023-07-13T06:14:59;13.18;;;9.45;;
32196;SDS011;18697;42.770;23.400;2023-07-13T06:17:25;15.15;;;9.93;;
32196;SDS011;18697;42.770;23.400;2023-07-13T06:19:50;15.27;;;9.30;;
32196;SDS011;18697;42.770;23.400;2023-07-13T06:22:16;9.77;;;8.23;;
32196;SDS011;18697;42.770;23.400;2023-07-13T06:24:41;19.23;;;11.48;;
32196;SDS011;18697;42.770;23.400;2023-07-13T06:27:06;19.40;;;10.02;;
32196;SDS011;18697;42.770;23.400;2023-07-13T06:29:32;16.77;;;9.88;;
32196;SDS011;18697;42.770;23.400;2023-07-13T06:31:58;11.60;;;8.07;;
32196;SDS011;18697;42.770;23.400;2023-07-13T06:34:23;14.68;;;8.52;;
32196;SDS011;18697;42.770;23.400;2023-07-13T06:36:48;10.82;;;8.18;;
32196;SDS011;18697;42.770;23.400;2023-07-13T06:39:14;9.30;;;7.63;;
32196;SDS011;18697;42.770;23.400;2023-07-13T06:41:39;9.45;;;7.15;;
32196;SDS011;18697;42.770;23.400;2023-07-13T06:44:05;11.57;;;7.07;;
32196;SDS011;18697;42.770;23.400;2023-07-13T06:46:31;10.80;;;7.72;;
32196;SDS011;18697;42.770;23.400;2023-07-13T06:48:57;15.32;;;8.18;;
32196;SDS011;18697;42.770;23.400;2023-07-13T06:51:22;12.82;;;7.25;;
32196;SDS011;18697;42.770;23.400;2023-07-13T06:53:48;25.90;;;9.10;;
32196;SDS011;18697;42.770;23.400;2023-07-13T06:56:14;11.98;;;7.10;;
32196;SDS011;18697;42.770;23.400;2023-07-13T06:58:40;18.17;;;8.32;;
32196;SDS011;18697;42.770;23.400;2023-07-13T07:01:06;16.55;;;8.23;;
32196;SDS011;18697;42.770;23.400;2023-07-13T07:03:31;12.65;;;7.88;;
32196;SDS011;18697;42.770;23.400;2023-07-13T07:06:01;9.93;;;6.90;;
32196;SDS011;18697;42.770;23.400;2023-07-13T07:08:38;16.00;;;8.05;;
32196;SDS011;18697;42.770;23.400;2023-07-13T07:11:03;12.68;;;7.82;;
32196;SDS011;18697;42.770;23.400;2023-07-13T07:13:28;9.65;;;7.30;;
32196;SDS011;18697;42.770;23.400;2023-07-13T07:15:55;18.83;;;8.13;;
32196;SDS011;18697;42.770;23.400;2023-07-13T07:18:20;14.48;;;7.88;;
32196;SDS011;18697;42.770;23.400;2023-07-13T07:20:46;12.52;;;8.00;;
32196;SDS011;18697;42.770;23.400;2023-07-13T07:23:11;9.63;;;7.70;;
32196;SDS011;18697;42.770;23.400;2023-07-13T07:25:36;12.70;;;8.68;;
32196;SDS011;18697;42.770;23.400;2023-07-13T07:28:06;9.98;;;7.20;;
32196;SDS011;18697;42.770;23.400;2023-07-13T07:30:32;10.88;;;7.03;;
32196;SDS011;18697;42.770;23.400;2023-07-13T07:32:58;13.27;;;8.45;;
32196;SDS011;18697;42.770;23.400;2023-07-13T07:35:23;9.77;;;7.50;;
32196;SDS011;18697;42.770;23.400;2023-07-13T07:37:49;9.05;;;6.85;;
32196;SDS011;18697;42.770;23.400;2023-07-13T07:40:14;9.70;;;6.80;;
32196;SDS011;18697;42.770;23.400;2023-07-13T07:42:40;14.98;;;7.38;;
32196;SDS011;18697;42.770;23.400;2023-07-13T07:45:05;7.35;;;6.38;;
32196;SDS011;18697;42.770;23.400;2023-07-13T07:47:31;10.20;;;7.03;;
32196;SDS011;18697;42.770;23.400;2023-07-13T07:49:56;14.05;;;7.35;;
32196;SDS011;18697;42.770;23.400;2023-07-13T07:52:22;11.55;;;7.20;;
32196;SDS011;18697;42.770;23.400;2023-07-13T07:54:47;11.75;;;7.50;;
32196;SDS011;18697;42.770;23.400;2023-07-13T07:57:13;11.57;;;7.55;;
32196;SDS011;18697;42.770;23.400;2023-07-13T07:59:38;11.38;;;7.80;;
32196;SDS011;18697;42.770;23.400;2023-07-13T08:02:03;12.50;;;7.57;;
32196;SDS011;18697;42.770;23.400;2023-07-13T08:04:29;12.20;;;7.60;;
32196;SDS011;18697;42.770;23.400;2023-07-13T08:06:54;12.90;;;6.75;;
32196;SDS011;18697;42.770;23.400;2023-07-13T08:09:21;7.30;;;6.32;;
32196;SDS011;18697;42.770;23.400;2023-07-13T08:11:46;12.27;;;6.50;;
32196;SDS011;18697;42.770;23.400;2023-07-13T08:14:12;10.55;;;8.25;;
32196;SDS011;18697;42.770;23.400;2023-07-13T08:16:37;9.27;;;7.10;;
32196;SDS011;18697;42.770;23.400;2023-07-13T08:19:03;10.15;;;7.70;;
32196;SDS011;18697;42.770;23.400;2023-07-13T08:21:29;10.30;;;6.95;;
32196;SDS011;18697;42.770;23.400;2023-07-13T08:23:55;10.93;;;6.90;;
32196;SDS011;18697;42.770;23.400;2023-07-13T08:26:20;8.60;;;6.90;;
32196;SDS011;18697;42.770;23.400;2023-07-13T08:28:46;10.77;;;8.07;;
32196;SDS011;18697;42.770;23.400;2023-07-13T08:31:12;11.18;;;7.07;;
32196;SDS011;18697;42.770;23.400;2023-07-13T08:33:38;12.80;;;7.88;;
32196;SDS011;18697;42.770;23.400;2023-07-13T08:36:05;11.57;;;7.30;;
32196;SDS011;18697;42.770;23.400;2023-07-13T08:38:31;19.52;;;8.02;;
32196;SDS011;18697;42.770;23.400;2023-07-13T08:40:57;13.50;;;7.82;;
32196;SDS011;18697;42.770;23.400;2023-07-13T08:43:25;13.65;;;7.57;;
32196;SDS011;18697;42.770;23.400;2023-07-13T08:46:01;45.85;;;32.50;;
32196;SDS011;18697;42.770;23.400;2023-07-13T08:48:38;11.98;;;9.63;;
32196;SDS011;18697;42.770;23.400;2023-07-13T08:51:35;14.65;;;6.80;;
32196;SDS011;18697;42.770;23.400;2023-07-13T08:54:10;14.18;;;7.85;;
32196;SDS011;18697;42.770;23.400;2023-07-13T08:56:49;10.07;;;6.72;;
32196;SDS011;18697;42.770;23.400;2023-07-13T08:59:18;14.35;;;10.00;;
32196;SDS011;18697;42.770;23.400;2023-07-13T09:01:52;27.52;;;15.43;;
32196;SDS011;18697;42.770;23.400;2023-07-13T09:04:42;9.77;;;7.07;;
32196;SDS011;18697;42.770;23.400;2023-07-13T09:15:40;9.55;;;6.57;;
32196;SDS011;18697;42.770;23.400;2023-07-13T09:18:13;13.93;;;6.82;;
32196;SDS011;18697;42.770;23.400;2023-07-13T09:20:52;9.88;;;7.00;;
32196;SDS011;18697;42.770;23.400;2023-07-13T09:23:44;10.52;;;6.25;;
32196;SDS011;18697;42.770;23.400;2023-07-13T09:26:18;12.85;;;6.25;;
32196;SDS011;18697;42.770;23.400;2023-07-13T09:28:46;9.77;;;6.68;;
32196;SDS011;18697;42.770;23.400;2023-07-13T09:31:19;9.65;;;6.47;;
32196;SDS011;18697;42.770;23.400;2023-07-13T09:33:51;8.73;;;6.47;;
32196;SDS011;18697;42.770;23.400;2023-07-13T09:36:27;15.13;;;6.47;;
32196;SDS011;18697;42.770;23.400;2023-07-13T09:39:18;9.73;;;5.60;;
32196;SDS011;18697;42.770;23.400;2023-07-13T09:41:51;10.35;;;5.65;;
32196;SDS011;18697;42.770;23.400;2023-07-13T09:44:28;12.43;;;5.65;;
32196;SDS011;18697;42.770;23.400;2023-07-13T09:47:02;9.60;;;5.90;;
32196;SDS011;18697;42.770;23.400;2023-07-13T09:49:35;10.82;;;5.75;;
32196;SDS011;18697;42.770;23.400;2023-07-13T09:54:33;7.82;;;5.68;;
32196;SDS011;18697;42.770;23.400;2023-07-13T09:57:01;9.77;;;5.32;;
32196;SDS011;18697;42.770;23.400;2023-07-13T09:59:32;10.05;;;5.97;;
32196;SDS011;18697;42.770;23.400;2023-07-13T10:01:59;10.82;;;5.88;;
32196;SDS011;18697;42.770;23.400;2023-07-13T10:04:31;15.93;;;6.20;;
32196;SDS011;18697;42.770;23.400;2023-07-13T10:07:08;9.88;;;5.75;;
32196;SDS011;18697;42.770;23.400;2023-07-13T10:09:40;12.98;;;5.22;;
32196;SDS011;18697;42.770;23.400;2023-07-13T10:12:14;10.43;;;5.57;;
32196;SDS011;18697;42.770;23.400;2023-07-13T10:14:41;14.00;;;5.63;;
32196;SDS011;18697;42.770;23.400;2023-07-13T10:17:10;7.72;;;5.43;;
32196;SDS011;18697;42.770;23.400;2023-07-13T10:19:39;8.90;;;5.97;;
32196;SDS011;18697;42.770;23.400;2023-07-13T10:22:19;7.22;;;4.30;;
32196;SDS011;18697;42.770;23.400;2023-07-13T10:24:52;9.38;;;4.50;;
32196;SDS011;18697;42.770;23.400;2023-07-13T10:27:41;10.23;;;4.82;;
32196;SDS011;18697;42.770;23.400;2023-07-13T10:30:12;7.28;;;4.70;;
32196;SDS011;18697;42.770;23.400;2023-07-13T10:32:48;8.32;;;4.60;;
32196;SDS011;18697;42.770;23.400;2023-07-13T10:35:15;11.70;;;4.78;;
32196;SDS011;18697;42.770;23.400;2023-07-13T10:40:34;7.55;;;4.85;;
32196;SDS011;18697;42.770;23.400;2023-07-13T10:43:04;7.68;;;4.25;;
32196;SDS011;18697;42.770;23.400;2023-07-13T10:45:38;7.00;;;3.88;;
32196;SDS011;18697;42.770;23.400;2023-07-13T10:48:04;8.35;;;5.00;;
32196;SDS011;18697;42.770;23.400;2023-07-13T10:50:31;6.05;;;3.55;;
32196;SDS011;18697;42.770;23.400;2023-07-13T10:53:28;6.07;;;4.18;;
32196;SDS011;18697;42.770;23.400;2023-07-13T10:56:03;29.30;;;5.43;;
32196;SDS011;18697;42.770;23.400;2023-07-13T10:58:50;8.68;;;3.53;;
32196;SDS011;18697;42.770;23.400;2023-07-13T11:01:54;8.68;;;6.47;;
32196;SDS011;18697;42.770;23.400;2023-07-13T11:04:22;9.13;;;5.22;;
32196;SDS011;18697;42.770;23.400;2023-07-13T11:06:50;4.25;;;3.63;;
32196;SDS011;18697;42.770;23.400;2023-07-13T11:15:13;5.75;;;3.78;;
32196;SDS011;18697;42.770;23.400;2023-07-13T11:17:47;5.40;;;3.97;;
32196;SDS011;18697;42.770;23.400;2023-07-13T11:36:04;6.32;;;3.22;;
32196;SDS011;18697;42.770;23.400;2023-07-13T11:41:07;6.68;;;3.78;;
32196;SDS011;18697;42.770;23.400;2023-07-13T11:43:40;6.70;;;3.58;;
32196;SDS011;18697;42.770;23.400;2023-07-13T11:48:43;5.18;;;3.33;;
32196;SDS011;18697;42.770;23.400;2023-07-13T11:51:21;7.90;;;3.90;;
32196;SDS011;18697;42.770;23.400;2023-07-13T11:53:49;5.80;;;3.40;;
32196;SDS011;18697;42.770;23.400;2023-07-13T11:56:17;5.90;;;3.65;;
32196;SDS011;18697;42.770;23.400;2023-07-13T11:58:43;5.18;;;3.33;;
32196;SDS011;18697;42.770;23.400;2023-07-13T12:01:15;10.18;;;3.45;;
32196;SDS011;18697;42.770;23.400;2023-07-13T12:03:44;5.00;;;3.53;;
32196;SDS011;18697;42.770;23.400;2023-07-13T12:09:11;9.95;;;3.72;;
32196;SDS011;18697;42.770;23.400;2023-07-13T12:11:39;10.13;;;3.58;;
32196;SDS011;18697;42.770;23.400;2023-07-13T12:14:10;5.65;;;3.15;;
32196;SDS011;18697;42.770;23.400;2023-07-13T12:16:38;7.38;;;3.47;;
32196;SDS011;18697;42.770;23.400;2023-07-13T12:19:09;7.82;;;3.80;;
32196;SDS011;18697;42.770;23.400;2023-07-13T12:21:44;12.38;;;3.78;;
32196;SDS011;18697;42.770;23.400;2023-07-13T12:24:16;7.60;;;3.50;;
32196;SDS011;18697;42.770;23.400;2023-07-13T12:26:44;18.70;;;3.67;;
32196;SDS011;18697;42.770;23.400;2023-07-13T12:29:16;7.90;;;3.65;;
32196;SDS011;18697;42.770;23.400;2023-07-13T12:31:43;6.82;;;3.47;;
32196;SDS011;18697;42.770;23.400;2023-07-13T12:34:11;6.93;;;3.20;;
32196;SDS011;18697;42.770;23.400;2023-07-13T12:36:38;7.43;;;3.90;;
32196;SDS011;18697;42.770;23.400;2023-07-13T12:39:14;7.03;;;3.80;;
32196;SDS011;18697;42.770;23.400;2023-07-13T12:41:48;9.65;;;3.38;;
32196;SDS011;18697;42.770;23.400;2023-07-13T12:44:29;9.38;;;3.50;;
32196;SDS011;18697;42.770;23.400;2023-07-13T12:46:57;8.13;;;3.53;;
32196;SDS011;18697;42.770;23.400;2023-07-13T12:49:39;9.15;;;3.90;;
32196;SDS011;18697;42.770;23.400;2023-07-13T12:52:14;8.77;;;3.60;;
32196;SDS011;18697;42.770;23.400;2023-07-13T12:54:57;7.45;;;3.90;;
32196;SDS011;18697;42.770;23.400;2023-07-13T13:02:57;10.88;;;4.20;;
32196;SDS011;18697;42.770;23.400;2023-07-13T13:05:28;9.00;;;3.95;;
32196;SDS011;18697;42.770;23.400;2023-07-13T13:07:54;11.85;;;4.00;;
32196;SDS011;18697;42.770;23.400;2023-07-13T13:10:20;12.27;;;3.92;;
32196;SDS011;18697;42.770;23.400;2023-07-13T13:12:46;6.13;;;3.90;;
32196;SDS011;18697;42.770;23.400;2023-07-13T13:15:12;7.55;;;3.85;;
32196;SDS011;18697;42.770;23.400;2023-07-13T13:17:38;9.10;;;3.97;;
32196;SDS011;18697;42.770;23.400;2023-07-13T13:20:13;8.63;;;3.80;;
32196;SDS011;18697;42.770;23.400;2023-07-13T13:22:41;14.63;;;3.80;;
32196;SDS011;18697;42.770;23.400;2023-07-13T13:25:09;6.95;;;4.15;;
32196;SDS011;18697;42.770;23.400;2023-07-13T13:27:36;7.63;;;3.50;;
32196;SDS011;18697;42.770;23.400;2023-07-13T13:30:02;7.65;;;3.75;;
32196;SDS011;18697;42.770;23.400;2023-07-13T13:32:27;15.65;;;4.03;;
32196;SDS011;18697;42.770;23.400;2023-07-13T13:34:53;9.48;;;3.80;;
32196;SDS011;18697;42.770;23.400;2023-07-13T13:37:22;7.88;;;3.90;;
32196;SDS011;18697;42.770;23.400;2023-07-13T13:39:50;7.30;;;3.88;;
32196;SDS011;18697;42.770;23.400;2023-07-13T13:42:16;8.52;;;3.65;;
32196;SDS011;18697;42.770;23.400;2023-07-13T13:44:42;8.93;;;4.47;;
32196;SDS011;18697;42.770;23.400;2023-07-13T13:47:17;8.32;;;3.92;;
32196;SDS011;18697;42.770;23.400;2023-07-13T13:49:52;10.30;;;4.07;;
32196;SDS011;18697;42.770;23.400;2023-07-13T13:52:18;10.02;;;4.10;;
32196;SDS011;18697;42.770;23.400;2023-07-13T13:54:43;7.60;;;4.13;;
32196;SDS011;18697;42.770;23.400;2023-07-13T13:57:09;9.40;;;4.07;;
32196;SDS011;18697;42.770;23.400;2023-07-13T13:59:37;6.15;;;4.22;;
32196;SDS011;18697;42.770;23.400;2023-07-13T14:02:08;9.40;;;4.70;;
32196;SDS011;18697;42.770;23.400;2023-07-13T14:04:47;7.20;;;4.22;;
32196;SDS011;18697;42.770;23.400;2023-07-13T14:07:15;10.63;;;4.30;;
32196;SDS011;18697;42.770;23.400;2023-07-13T14:09:41;12.85;;;3.80;;
32196;SDS011;18697;42.770;23.400;2023-07-13T14:12:08;26.02;;;4.53;;
32196;SDS011;18697;42.770;23.400;2023-07-13T14:14:37;15.20;;;5.40;;
32196;SDS011;18697;42.770;23.400;2023-07-13T14:17:02;23.55;;;12.85;;
32196;SDS011;18697;42.770;23.400;2023-07-13T14:19:28;10.95;;;4.10;;
32196;SDS011;18697;42.770;23.400;2023-07-13T14:21:54;6.80;;;3.78;;
32196;SDS011;18697;42.770;23.400;2023-07-13T14:24:19;10.65;;;4.22;;
32196;SDS011;18697;42.770;23.400;2023-07-13T14:26:46;13.32;;;3.78;;
32196;SDS011;18697;42.770;23.400;2023-07-13T14:29:16;7.05;;;3.40;;
32196;SDS011;18697;42.770;23.400;2023-07-13T14:31:43;6.80;;;3.75;;
32196;SDS011;18697;42.770;23.400;2023-07-13T14:34:10;9.45;;;3.65;;
32196;SDS011;18697;42.770;23.400;2023-07-13T14:39:20;16.50;;;4.30;;
32196;SDS011;18697;42.770;23.400;2023-07-13T14:41:49;9.55;;;4.63;;
32196;SDS011;18697;42.770;23.400;2023-07-13T14:44:16;10.68;;;3.85;;
32196;SDS011;18697;42.770;23.400;2023-07-13T14:46:44;13.65;;;3.95;;
32196;SDS011;18697;42.770;23.400;2023-07-13T14:51:56;8.98;;;3.90;;
32196;SDS011;18697;42.770;23.400;2023-07-13T14:54:23;10.70;;;4.00;;
32196;SDS011;18697;42.770;23.400;2023-07-13T14:56:49;12.23;;;3.55;;
32196;SDS011;18697;42.770;23.400;2023-07-13T14:59:16;9.43;;;3.90;;
32196;SDS011;18697;42.770;23.400;2023-07-13T15:01:44;7.80;;;3.83;;
32196;SDS011;18697;42.770;23.400;2023-07-13T15:04:11;7.25;;;3.70;;
32196;SDS011;18697;42.770;23.400;2023-07-13T15:06:52;8.02;;;3.72;;
32196;SDS011;18697;42.770;23.400;2023-07-13T15:11:51;10.55;;;4.00;;
32196;SDS011;18697;42.770;23.400;2023-07-13T15:14:19;11.50;;;4.80;;
32196;SDS011;18697;42.770;23.400;2023-07-13T15:16:46;10.18;;;4.05;;
32196;SDS011;18697;42.770;23.400;2023-07-13T15:19:14;12.77;;;3.90;;
32196;SDS011;18697;42.770;23.400;2023-07-13T15:21:42;12.00;;;4.18;;
32196;SDS011;18697;42.770;23.400;2023-07-13T15:24:08;13.35;;;4.65;;
32196;SDS011;18697;42.770;23.400;2023-07-13T15:26:35;7.97;;;4.47;;
32196;SDS011;18697;42.770;23.400;2023-07-13T15:29:00;9.38;;;4.10;;
32196;SDS011;18697;42.770;23.400;2023-07-13T15:31:26;9.65;;;3.75;;
32196;SDS011;18697;42.770;23.400;2023-07-13T15:33:53;8.50;;;3.95;;
32196;SDS011;18697;42.770;23.400;2023-07-13T15:36:20;12.65;;;4.10;;